ETSILSZC

Guest
Details From ETSI - Ingolstadt Manching
To LSZC - Buochs
Flight Number -
Tags generated
Created
Modified
Stats Distance 164 nm / 304 km
Max Altitude 12,100 ft / 3,688 m
Waypoints 3
Social Downloads 2
Likes 0
Share VATSIM

Download

Looking for another format? Having issues loading an existing format? Contact us
Advertisement - Login to hide

Notes

Basic altitude profile: - Ascent Rate: 2500ft/min - Ascent Speed: 250kts - Cruise Altitude: 35000ft - Cruise Speed: 420kts - Descent Rate: 1500ft/min - Descent Speed: 250kts Options: - Use NATs: yes - Use PACOTS: yes - Use low airways: yes - Use high airways: yes

Route

ETSI BODAN LSZC

ID Type Via Altitude Latitude Longitude Leg Dist Tot Dist Heading (true) Name
O ETSI APT - 0 ft / 0 m 48.71509˚ 11.53406˚ - 0 nm - Ingolstadt Manching
BODAN FIX - 12,100 ft / 3,688 m 47.58750˚ 9.45139˚ 107 nm 107 nm 232° / 230° -
O LSZC APT - 0 ft / 0 m 46.97319˚ 8.39736˚ 56 nm 164 nm 230° / 229° Buochs

Altitude Profile

Advertisement - Login to hide

Weather


0- 5 10 15 20 25 30 35+ Temperature / ° C

Clouds and Precipitation
Forecast for 2018-05-26 06:00 UTC. Updated an hour ago

Ground ~20,000 ft ~40,000 ft Winds

ETSI

Details ICAO ETSI
Name Ingolstadt Manching
Region Germany - Military
Timezone Europe/Berlin (UTC+2.0)
Stats Elevation 1,202 ft / 366 m (AMSL)
Location 48.715095° 11.534059°
Runways 2
Magnetic Variation 3.166° E

METAR

ETSI 260637Z 08004KT 3000 BR FEW001 SCT002 BKN003 14/14 Q1021 YLO

Decode

TAF

Not found

Departure Runways

ID Width Length Bearing (true) Bearing (mag) Surface Threshold Offset Overrun Length
07L 98 ft / 30 m 7,983 ft / 2,433 m 67.94° 64.77° Concrete 0 ft / 0 m 1,506 ft / 459 m
07R 197 ft / 60 m 9,642 ft / 2,939 m 68.14° 64.97° Asphalt 0 ft / 0 m 1,066 ft / 325 m
25L 197 ft / 60 m 9,642 ft / 2,939 m 248.17° 245.00° Asphalt 0 ft / 0 m 1,066 ft / 325 m
25R 98 ft / 30 m 7,983 ft / 2,433 m 247.97° 244.80° Concrete 602 ft / 183 m 1,050 ft / 320 m

LSZC

Details ICAO LSZC (BXO)
Name Buochs
Region Switzerland
Timezone Europe/Zurich (UTC+2.0)
Stats Elevation 1,475 ft / 450 m (AMSL)
Location 46.973188° 8.397360°
Runways 2
Magnetic Variation 2.360° E

METAR

LSZC 260620Z AUTO VRB01KT CAVOK 18/12 Q1019

Decode

TAF

Not found

Destination Runways

ID Width Length Bearing (true) Bearing (mag) Surface Threshold Offset Overrun Length
07L 131 ft / 40 m 6,570 ft / 2,002 m 64.09° 61.73° Asphalt 0 ft / 0 m 650 ft / 198 m
07R 131 ft / 40 m 4,827 ft / 1,471 m 64.00° 61.64° Asphalt 0 ft / 0 m 1,161 ft / 354 m
25L 131 ft / 40 m 4,827 ft / 1,471 m 244.02° 241.66° Asphalt 0 ft / 0 m 1,161 ft / 354 m
25R 131 ft / 40 m 6,570 ft / 2,002 m 244.11° 241.75° Asphalt 0 ft / 0 m 650 ft / 198 m